Time;durP1;ratioP1;P1;durP2;ratioP2;P2;SDS_P1;SDS_P2;PMS_P1;PMS_P2;Temp;Humidity;BMP_temperature;BMP_pressure;BME280_temperature;BME280_humidity;BME280_pressure;Samples;Min_cycle;Max_cycle;Signal;HPM_P1;HPM_P2
2022/02/07 00:02:20;;;;;;;28.50;17.20;;;;;;;2.49;100.00;100506.84;4974294;28;20037;-74
2022/02/07 00:04:47;;;;;;;49.70;27.13;;;;;;;2.50;100.00;100503.53;4957344;28;20089;-74
2022/02/07 00:07:16;;;;;;;41.33;23.57;;;;;;;2.47;100.00;100500.75;4974625;28;20117;-79
2022/02/07 00:09:42;;;;;;;50.20;26.73;;;;;;;2.19;100.00;100458.06;4975061;28;20061;-75
2022/02/07 00:12:08;;;;;;;34.30;21.17;;;;;;;2.24;100.00;100470.38;4974376;28;20125;-74
2022/02/07 00:14:34;;;;;;;30.63;19.07;;;;;;;2.32;100.00;100476.00;4974609;28;20023;-75
2022/02/07 00:16:59;;;;;;;22.23;16.10;;;;;;;2.26;100.00;100480.66;4974347;28;20581;-74
2022/02/07 00:19:27;;;;;;;23.70;16.20;;;;;;;2.12;100.00;100435.50;4974514;28;20030;-73
2022/02/07 00:21:53;;;;;;;22.53;15.80;;;;;;;2.34;100.00;100469.31;4973399;28;20026;-74
2022/02/07 00:24:19;;;;;;;24.50;17.03;;;;;;;2.35;100.00;100460.91;4974188;28;20026;-74
2022/02/07 00:26:44;;;;;;;22.27;16.67;;;;;;;2.36;100.00;100449.06;4974387;28;20081;-74
2022/02/07 00:29:11;;;;;;;26.03;17.27;;;;;;;2.38;100.00;100444.94;4974384;28;20035;-76
2022/02/07 00:31:37;;;;;;;23.90;16.23;;;;;;;2.42;100.00;100450.38;4973897;28;20379;-73
2022/02/07 00:34:02;;;;;;;25.23;16.47;;;;;;;1.92;100.00;100364.59;4974210;28;20077;-80
2022/02/07 00:36:29;;;;;;;26.85;18.77;;;;;;;2.21;100.00;100396.28;4956511;28;20023;-75
2022/02/07 00:39:00;;;;;;;24.08;16.63;;;;;;;2.45;100.00;100438.63;4956764;28;20057;-75
2022/02/07 00:41:40;;;;;;;27.52;18.92;;;;;;;2.32;100.00;100424.13;4974090;28;20030;-72
2022/02/07 00:44:12;;;;;;;31.05;18.80;;;;;;;2.48;100.00;100438.81;4971640;28;20052;-73
2022/02/07 00:46:46;;;;;;;29.40;18.87;;;;;;;2.47;100.00;100424.31;4973907;28;20544;-73
2022/02/07 00:49:12;;;;;;;24.20;17.55;;;;;;;2.42;100.00;100419.78;4973664;28;20130;-74
2022/02/07 00:51:37;;;;;;;33.40;21.87;;;;;;;2.43;100.00;100411.38;4973470;28;20105;-77
2022/02/07 00:54:03;;;;;;;28.88;19.83;;;;;;;2.32;100.00;100369.00;4973586;28;20035;-81
2022/02/07 00:56:28;;;;;;;23.92;15.63;;;;;;;2.47;100.00;100414.13;4974125;28;20118;-77
2022/02/07 00:58:54;;;;;;;26.20;19.30;;;;;;;2.03;100.00;100344.06;4973523;28;20552;-76
2022/02/07 01:01:19;;;;;;;21.57;16.30;;;;;;;2.03;100.00;100344.97;4952513;29;20081;-74
2022/02/07 01:03:45;;;;;;;23.58;16.60;;;;;;;2.39;100.00;100393.22;4954473;29;20620;-74
2022/02/07 01:06:10;;;;;;;25.30;16.63;;;;;;;2.30;100.00;100352.72;4954356;29;20035;-76
2022/02/07 01:08:44;;;;;;;35.08;20.85;;;;;;;2.54;100.00;100378.09;4954111;29;20055;-75
2022/02/07 01:11:20;;;;;;;28.90;17.77;;;;;;;2.52;100.00;100377.13;4962136;28;20031;-73
2022/02/07 01:54:30;;;;;;;17.30;12.38;;;;;;;3.05;100.00;100269.22;4972724;28;20114;-75
2022/02/07 01:56:56;;;;;;;17.67;12.95;;;;;;;3.25;100.00;100296.00;4971410;28;20023;-76
2022/02/07 01:59:22;;;;;;;18.10;11.95;;;;;;;2.81;100.00;100209.91;4972407;28;20409;-77
2022/02/07 02:01:47;;;;;;;17.02;11.15;;;;;;;3.21;99.84;100282.16;4972107;28;20152;-76
2022/02/07 02:04:13;;;;;;;18.92;12.77;;;;;;;3.23;100.00;100287.38;4972545;28;20469;-76
2022/02/07 02:06:40;;;;;;;20.20;13.52;;;;;;;3.23;100.00;100278.06;4972793;28;20137;-75
2022/02/07 02:09:05;;;;;;;18.88;12.95;;;;;;;3.19;100.00;100265.00;4972582;28;20141;-76
2022/02/07 02:11:33;;;;;;;29.23;17.02;;;;;;;3.01;100.00;100268.16;4972369;28;20089;-76
2022/02/07 02:16:52;;;;;;;19.58;12.73;;;;;;;2.88;100.00;100270.72;4972186;28;20493;-79
2022/02/07 02:38:43;;;;;;;15.18;12.25;;;;;;;2.51;100.00;100219.91;4972113;28;20508;-76
2022/02/07 02:46:34;;;;;;;20.95;14.40;;;;;;;1.63;100.00;100211.53;4972174;28;20035;-75
2022/02/07 02:49:02;;;;;;;23.67;15.23;;;;;;;0.93;100.00;100182.16;4972280;28;20035;-75
2022/02/07 02:51:28;;;;;;;26.33;18.97;;;;;;;1.19;100.00;100243.28;4971698;28;20111;-74
2022/02/07 02:53:54;;;;;;;21.40;14.33;;;;;;;1.17;100.00;100235.50;4971750;28;20053;-75
2022/02/07 02:56:19;;;;;;;20.73;14.10;;;;;;;1.09;100.00;100237.50;4972187;28;20030;-74
2022/02/07 02:58:45;;;;;;;26.37;16.30;;;;;;;1.00;100.00;100235.97;4972157;28;20023;-76
2022/02/07 03:01:10;;;;;;;32.07;19.27;;;;;;;0.92;100.00;100230.34;4972097;28;20090;-77
2022/02/07 03:03:36;;;;;;;46.40;25.77;;;;;;;0.71;100.00;100229.69;4972130;28;20042;-77
2022/02/07 03:06:02;;;;;;;36.57;22.90;;;;;;;0.42;100.00;100226.78;4972049;28;20062;-76
2022/02/07 03:08:27;;;;;;;24.87;15.77;;;;;;;0.32;100.00;100237.94;4970561;28;20571;-76
2022/02/07 03:18:48;;;;;;;21.60;14.37;;;;;;;0.72;100.00;100190.81;4936505;29;20082;-73
2022/02/07 03:21:14;;;;;;;20.67;14.00;;;;;;;0.85;100.00;100183.28;4950065;29;20043;-74
2022/02/07 03:23:39;;;;;;;20.67;13.53;;;;;;;1.04;100.00;100194.75;4950171;29;20035;-71
2022/02/07 03:26:05;;;;;;;21.33;13.73;;;;;;;0.97;100.00;100175.63;4949847;29;20031;-78
2022/02/07 03:28:30;;;;;;;20.77;14.13;;;;;;;0.98;100.00;100197.75;4934091;29;20043;-74
2022/02/07 03:30:56;;;;;;;19.50;13.93;;;;;;;0.68;100.00;100153.25;4949954;29;20167;-74
2022/02/07 03:33:23;;;;;;;22.47;14.10;;;;;;;0.82;100.00;100205.06;4949775;29;20078;-75
2022/02/07 03:35:49;;;;;;;22.10;14.50;;;;;;;0.67;100.00;100170.16;4949955;29;20039;-72
2022/02/07 03:38:14;;;;;;;22.80;14.83;;;;;;;0.68;100.00;100165.97;4950112;29;20440;-74
2022/02/07 03:40:41;;;;;;;23.57;13.87;;;;;;;0.71;100.00;100189.94;4949921;29;20043;-77
2022/02/07 03:43:06;;;;;;;21.47;14.03;;;;;;;0.59;100.00;100174.69;4949998;29;20031;-72
2022/02/07 03:45:32;;;;;;;23.43;15.23;;;;;;;0.57;100.00;100160.09;4949742;29;20046;-76
2022/02/07 03:47:57;;;;;;;19.87;14.27;;;;;;;0.41;100.00;100133.63;4949524;29;20648;-78
2022/02/07 03:50:23;;;;;;;22.20;14.77;;;;;;;0.68;100.00;100169.38;4949953;29;20035;-74
2022/02/07 03:52:50;;;;;;;23.40;15.87;;;;;;;0.72;100.00;100161.19;4953888;28;20118;-77
2022/02/07 03:55:16;;;;;;;23.53;14.20;;;;;;;0.70;100.00;100160.22;4960494;28;20118;-74
2022/02/07 03:57:42;;;;;;;20.47;14.67;;;;;;;0.78;100.00;100160.75;4971176;28;20510;-73
2022/02/07 04:00:09;;;;;;;22.10;15.20;;;;;;;0.44;100.00;100179.53;4973192;28;20035;-76
2022/02/07 04:02:40;;;;;;;21.90;14.80;;;;;;;0.33;100.00;100139.78;4974559;28;20105;-77
2022/02/07 04:07:54;;;;;;;21.02;13.32;;;;;;;0.26;100.00;100160.41;4892388;29;20140;-76
2022/02/07 04:10:22;;;;;;;27.73;17.20;;;;;;;0.25;100.00;100164.63;4875291;29;20535;-78
2022/02/07 04:12:54;;;;;;;26.30;16.33;;;;;;;-0.06;100.00;100129.38;4877516;29;20056;-75
2022/02/07 04:15:20;;;;;;;20.43;14.67;;;;;;;-0.14;100.00;100160.03;4876786;29;20576;-76
2022/02/07 04:17:53;;;;;;;23.73;14.40;;;;;;;-0.41;100.00;100139.44;4876965;29;20037;-76
2022/02/07 04:20:19;;;;;;;21.30;14.53;;;;;;;-0.39;100.00;100143.84;4876839;29;20096;-76
2022/02/07 04:22:44;;;;;;;30.13;17.20;;;;;;;-0.47;100.00;100150.00;4876727;29;20123;-75
2022/02/07 04:25:10;;;;;;;24.83;15.53;;;;;;;-0.62;100.00;100148.81;4876622;29;20185;-75
2022/02/07 04:27:36;;;;;;;25.40;15.43;;;;;;;-0.53;100.00;100155.47;4878776;29;20028;-75
2022/02/07 04:30:03;;;;;;;23.60;16.03;;;;;;;-0.62;100.00;100139.59;4876637;29;20052;-76
2022/02/07 04:32:29;;;;;;;27.10;16.23;;;;;;;-0.47;100.00;100149.09;4876239;29;20045;-76
2022/02/07 04:34:54;;;;;;;28.53;15.47;;;;;;;-0.97;100.00;100102.31;4876557;29;20037;-77
2022/02/07 04:37:20;;;;;;;27.67;17.37;;;;;;;-0.65;100.00;100141.88;4876472;29;20048;-75
2022/02/07 04:39:45;;;;;;;21.47;15.20;;;;;;;-0.59;100.00;100149.94;4876459;29;20047;-74
2022/02/07 04:42:12;;;;;;;24.90;16.13;;;;;;;-0.58;100.00;100153.38;4875958;29;20080;-74
2022/02/07 04:44:52;;;;;;;27.80;17.03;;;;;;;-0.56;100.00;100149.28;4906568;28;20046;-74
2022/02/07 04:55:33;;;;;;;33.30;20.57;;;;;;;-0.37;100.00;100111.00;4953837;28;20038;-78
2022/02/07 04:58:07;;;;;;;37.83;23.60;;;;;;;-0.26;100.00;100120.31;4953466;28;20047;-77
2022/02/07 05:03:25;;;;;;;32.53;19.63;;;;;;;-0.34;100.00;100085.84;4933854;29;20055;-77
2022/02/07 05:13:52;;;;;;;24.33;16.80;;;;;;;-0.35;100.00;100105.28;4932069;29;20544;-75
2022/02/07 05:18:50;;;;;;;34.60;22.07;;;;;;;-0.74;100.00;100131.03;4935143;29;20043;-76
2022/02/07 05:21:16;;;;;;;39.47;22.23;;;;;;;-1.40;100.00;100126.81;4934126;29;20138;-75
2022/02/07 05:23:42;;;;;;;35.80;22.80;;;;;;;-1.35;100.00;100128.94;4931507;29;20028;-75
2022/02/07 05:26:08;;;;;;;34.17;20.80;;;;;;;-1.29;100.00;100148.81;4933973;29;20036;-74
2022/02/07 05:28:33;;;;;;;34.00;19.37;;;;;;;-1.67;100.00;100084.25;4951508;29;20126;-75
2022/02/07 05:30:58;;;;;;;26.93;16.73;;;;;;;-1.32;100.00;100144.38;4951646;29;20090;-73
2022/02/07 05:33:24;;;;;;;26.00;16.83;;;;;;;-1.41;100.00;100143.63;4951500;29;20110;-73
2022/02/07 05:35:49;;;;;;;25.20;16.60;;;;;;;-1.52;100.00;100142.81;4951618;29;20608;-72
2022/02/07 05:38:15;;;;;;;23.97;15.37;;;;;;;-2.37;100.00;100001.94;4951628;29;20035;-75
2022/02/07 05:40:52;;;;;;;28.33;17.83;;;;;;;-1.50;100.00;100153.91;4964221;28;20057;-75
2022/02/07 05:43:18;;;;;;;34.33;24.90;;;;;;;-1.61;100.00;100110.81;4971302;28;20046;-72
2022/02/07 05:45:44;;;;;;;28.80;18.97;;;;;;;-1.42;100.00;100098.84;4965051;28;20030;-72
2022/02/07 05:48:10;;;;;;;34.00;21.17;;;;;;;-0.96;100.00;100148.78;4985946;28;20030;-74
2022/02/07 05:50:35;;;;;;;27.07;19.40;;;;;;;-0.78;100.00;100118.91;4992060;28;20034;-74
2022/02/07 05:53:01;;;;;;;31.30;19.33;;;;;;;-0.68;100.00;100118.84;4989764;28;20034;-76
2022/02/07 05:55:27;;;;;;;43.40;28.57;;;;;;;-0.50;100.00;100121.88;4972344;28;20035;-76
2022/02/07 05:57:52;;;;;;;33.87;22.73;;;;;;;-0.44;100.00;100132.47;4972707;28;20457;-75
2022/02/07 06:00:19;;;;;;;37.67;24.67;;;;;;;-0.46;100.00;100133.13;4972409;28;20027;-75
2022/02/07 06:02:45;;;;;;;42.47;26.53;;;;;;;-0.52;100.00;100136.97;4972204;28;20027;-72
2022/02/07 06:05:11;;;;;;;40.93;26.87;;;;;;;-0.80;100.00;100079.88;4972296;28;20027;-75
2022/02/07 06:07:36;;;;;;;34.37;24.40;;;;;;;-0.41;100.00;100117.50;4972246;28;20096;-75
2022/02/07 06:10:03;;;;;;;53.63;30.27;;;;;;;-0.25;100.00;100144.91;4972326;28;20146;-74
2022/02/07 06:12:33;;;;;;;39.83;22.90;;;;;;;-0.20;100.00;100155.38;4970239;28;20042;-74
2022/02/07 06:14:59;;;;;;;30.27;21.00;;;;;;;-0.17;100.00;100138.72;4972094;28;20102;-75
2022/02/07 06:17:24;;;;;;;35.17;22.50;;;;;;;-0.13;100.00;100128.81;4969263;28;20033;-77
2022/02/07 06:19:52;;;;;;;36.57;22.20;;;;;;;0.04;100.00;100141.09;4971770;28;20041;-77
2022/02/07 06:22:17;;;;;;;31.73;22.70;;;;;;;0.29;100.00;100138.69;4971353;28;20536;-71
2022/02/07 06:24:42;;;;;;;37.60;23.27;;;;;;;0.35;100.00;100117.94;4971764;28;20023;-77
2022/02/07 06:27:08;;;;;;;39.60;23.50;;;;;;;0.53;100.00;100138.69;4971921;28;20027;-78
2022/02/07 06:29:33;;;;;;;38.37;23.93;;;;;;;0.48;100.00;100130.72;4955146;28;20162;-76
2022/02/07 06:31:59;;;;;;;37.17;22.17;;;;;;;0.52;100.00;100136.91;4960578;28;20038;-76
2022/02/07 06:34:24;;;;;;;32.43;20.37;;;;;;;0.67;100.00;100129.50;4961148;28;20042;-74
2022/02/07 06:37:10;;;;;;;31.33;20.43;;;;;;;0.73;100.00;100107.06;4960475;28;20034;-76
2022/02/07 06:39:35;;;;;;;29.87;19.23;;;;;;;0.80;100.00;100094.03;4958373;28;20142;-74
2022/02/07 06:42:00;;;;;;;32.33;18.40;;;;;;;1.01;100.00;100103.94;4968321;28;20039;-75
2022/02/07 06:44:27;;;;;;;25.90;17.87;;;;;;;0.98;100.00;100096.06;4968599;28;20034;-75
2022/02/07 06:46:53;;;;;;;32.83;21.80;;;;;;;1.07;100.00;100101.81;4968460;28;20073;-75
2022/02/07 06:49:18;;;;;;;29.90;19.70;;;;;;;1.29;100.00;100082.91;4968266;28;20046;-75
2022/02/07 06:51:44;;;;;;;32.77;21.10;;;;;;;1.38;100.00;100052.13;4968384;28;20035;-75
2022/02/07 06:54:10;;;;;;;34.27;21.33;;;;;;;1.68;100.00;100050.72;4967032;28;20059;-76
2022/02/07 06:56:35;;;;;;;30.10;19.73;;;;;;;2.09;100.00;100082.19;4968688;28;20466;-75
2022/02/07 06:59:01;;;;;;;30.97;18.53;;;;;;;2.37;100.00;100074.66;4963793;28;20075;-73
2022/02/07 07:01:26;;;;;;;33.72;21.02;;;;;;;2.54;100.00;100069.75;4962586;28;20479;-75
2022/02/07 07:03:52;;;;;;;41.90;22.58;;;;;;;2.87;100.00;100085.38;4961479;28;20043;-74
2022/02/07 07:06:17;;;;;;;39.75;24.58;;;;;;;2.93;100.00;100075.56;4960389;28;20046;-75
2022/02/07 07:08:51;;;;;;;33.70;21.75;;;;;;;2.91;100.00;100051.63;4951495;28;20078;-75
2022/02/07 07:11:20;;;;;;;33.25;22.27;;;;;;;3.31;100.00;100074.41;4956329;28;20039;-76
2022/02/07 07:14:04;;;;;;;27.45;16.20;;;;;;;3.52;100.00;100064.59;4952190;28;20582;-76
2022/02/07 07:18:59;;;;;;;32.50;20.30;;;;;;;3.75;100.00;100037.00;4968308;28;20523;-75
2022/02/07 07:21:26;;;;;;;30.65;20.52;;;;;;;3.86;100.00;100058.91;4968363;28;20062;-76
2022/02/07 07:23:54;;;;;;;32.08;20.88;;;;;;;3.78;100.00;100066.94;4936656;28;20105;-75
2022/02/07 07:26:23;;;;;;;34.20;22.50;;;;;;;3.81;100.00;100074.75;4961496;28;20035;-75
2022/02/07 07:28:48;;;;;;;37.95;24.15;;;;;;;3.83;100.00;100076.59;4951479;28;20374;-75
2022/02/07 07:31:15;;;;;;;32.13;21.75;;;;;;;3.78;100.00;100067.78;4950018;28;20062;-75
2022/02/07 07:33:43;;;;;;;32.58;21.88;;;;;;;3.95;100.00;100078.97;4950347;28;20046;-75
2022/02/07 07:36:08;;;;;;;39.65;23.13;;;;;;;4.15;100.00;100069.88;4955372;28;20023;-76
2022/02/07 07:38:54;;;;;;;41.08;23.90;;;;;;;4.24;100.00;100064.41;4952652;28;20047;-74
2022/02/07 07:41:19;;;;;;;32.95;21.67;;;;;;;4.38;100.00;100080.50;4952415;28;20047;-76
2022/02/07 07:43:48;;;;;;;37.25;22.50;;;;;;;4.21;100.00;100082.09;4952568;28;20153;-76
2022/02/07 07:46:16;;;;;;;33.97;22.05;;;;;;;4.04;100.00;100076.94;4952470;28;20031;-75
2022/02/07 07:48:48;;;;;;;26.75;18.98;;;;;;;4.00;100.00;100061.34;4952621;28;20041;-76
2022/02/07 08:02:22;;;;;;;22.70;16.65;;;;;;;3.85;100.00;100061.34;4952052;29;20103;-75
2022/02/07 08:04:48;;;;;;;24.48;16.75;;;;;;;3.81;100.00;100049.22;4952257;29;20174;-75
2022/02/07 08:10:02;;;;;;;22.58;16.13;;;;;;;3.11;100.00;99926.97;4952024;29;20051;-75
2022/02/07 08:12:28;;;;;;;22.70;16.02;;;;;;;3.64;100.00;100015.94;4952088;29;20035;-75
2022/02/07 08:14:55;;;;;;;23.15;16.52;;;;;;;3.79;100.00;100027.81;4951811;29;20042;-75
2022/02/07 08:17:21;;;;;;;22.60;15.88;;;;;;;3.64;100.00;99975.09;4917039;29;20076;-75
2022/02/07 08:19:48;;;;;;;21.50;17.15;;;;;;;4.05;100.00;100002.06;4912666;29;20071;-75
2022/02/07 08:22:13;;;;;;;22.73;15.45;;;;;;;4.26;100.00;100019.41;4913446;29;20043;-76
2022/02/07 08:24:40;;;;;;;25.33;16.65;;;;;;;4.20;100.00;100021.63;4913833;29;20040;-75
2022/02/07 08:27:06;;;;;;;24.23;16.30;;;;;;;4.10;100.00;99976.78;4913384;29;20068;-76
2022/02/07 08:29:31;;;;;;;24.75;17.30;;;;;;;4.31;100.00;99997.53;4916772;29;20040;-75
2022/02/07 08:31:57;;;;;;;24.70;17.00;;;;;;;4.28;100.00;99978.59;4937060;28;20023;-74
2022/02/07 08:34:23;;;;;;;24.40;17.08;;;;;;;4.56;100.00;99985.16;4954334;28;20155;-75
2022/02/07 08:36:48;;;;;;;27.48;18.35;;;;;;;4.71;100.00;100003.91;4954258;28;20027;-77
2022/02/07 08:39:14;;;;;;;26.33;17.80;;;;;;;4.91;100.00;100016.81;4953821;28;20430;-75
2022/02/07 08:41:40;;;;;;;29.77;18.05;;;;;;;4.94;100.00;100015.31;4953628;28;20077;-75
2022/02/07 08:44:06;;;;;;;32.40;19.08;;;;;;;5.06;100.00;100016.75;4954120;28;20039;-75
2022/02/07 08:46:31;;;;;;;29.85;18.80;;;;;;;5.22;100.00;99988.59;4953796;28;20023;-78
2022/02/07 08:48:58;;;;;;;32.55;17.83;;;;;;;5.45;100.00;99992.31;4953962;28;20031;-74
2022/02/07 08:51:24;;;;;;;31.17;20.15;;;;;;;5.47;100.00;99957.41;4953998;28;20097;-72
2022/02/07 08:53:50;;;;;;;32.70;18.92;;;;;;;5.94;100.00;99972.44;4953895;28;20474;-75
2022/02/07 08:56:19;;;;;;;29.33;17.33;;;;;;;6.01;100.00;99955.69;4953568;28;20035;-74
2022/02/07 08:58:47;;;;;;;26.40;17.17;;;;;;;6.21;100.00;99960.06;4953800;28;20023;-75
2022/02/07 09:01:22;;;;;;;25.95;17.90;;;;;;;6.31;100.00;99957.13;4953642;28;20050;-74
2022/02/07 09:11:32;;;;;;;25.52;15.60;;;;;;;6.60;98.02;99923.34;4953657;28;20031;-75
2022/02/07 09:13:59;;;;;;;27.70;17.67;;;;;;;6.84;98.04;99953.44;4953201;28;20086;-75
2022/02/07 09:16:32;;;;;;;27.17;16.92;;;;;;;6.83;97.68;99938.84;4953548;28;20487;-74
2022/02/07 09:18:59;;;;;;;25.58;16.70;;;;;;;6.91;95.99;99946.06;4956628;28;20023;-74
2022/02/07 09:21:25;;;;;;;31.70;18.38;;;;;;;6.96;93.30;99918.03;4935983;28;20058;-75
2022/02/07 09:23:51;;;;;;;32.97;20.25;;;;;;;7.01;94.21;99925.94;4953059;28;20027;-76
2022/02/07 09:26:16;;;;;;;35.95;20.73;;;;;;;7.11;94.36;99904.97;4953055;28;20074;-75
2022/02/07 09:28:42;;;;;;;47.35;27.45;;;;;;;7.16;92.45;99879.50;4936067;28;20039;-75
2022/02/07 09:31:09;;;;;;;49.15;30.15;;;;;;;7.65;90.49;99901.16;4953064;28;20033;-76
2022/02/07 09:33:34;;;;;;;36.63;23.20;;;;;;;7.64;91.40;99909.66;4953150;28;20051;-75
2022/02/07 09:36:00;;;;;;;35.13;22.33;;;;;;;7.59;91.14;99899.22;4952573;28;20023;-75
2022/02/07 09:38:27;;;;;;;28.05;18.33;;;;;;;7.39;93.14;99896.72;4953214;28;20019;-76
2022/02/07 09:40:54;;;;;;;29.20;18.20;;;;;;;7.35;95.03;99888.81;4951897;28;20038;-75
2022/02/07 09:43:21;;;;;;;36.95;23.48;;;;;;;7.58;94.79;99882.06;4945568;28;20441;-73
2022/02/07 09:45:50;;;;;;;32.55;19.00;;;;;;;7.87;92.50;99884.88;4954219;28;20034;-76
2022/02/07 09:48:17;;;;;;;20.88;14.43;;;;;;;7.92;92.16;99870.50;4952862;28;20027;-76
2022/02/07 09:50:43;;;;;;;19.73;14.05;;;;;;;7.91;92.75;99859.34;4951834;28;20491;-76
2022/02/07 09:53:09;;;;;;;21.17;14.68;;;;;;;7.81;92.43;99852.09;4950233;28;20031;-76
2022/02/07 09:55:34;;;;;;;17.65;12.93;;;;;;;7.60;92.41;99829.03;4951062;28;20410;-77
2022/02/07 09:58:01;;;;;;;34.75;23.13;;;;;;;7.94;91.60;99836.31;4934688;28;20118;-74
2022/02/07 10:00:32;;;;;;;17.10;12.75;;;;;;;7.72;91.23;99780.69;4951423;28;20038;-76
2022/02/07 10:13:51;;;;;;;23.50;17.40;;;;;;;8.61;87.77;99761.56;4970854;28;20085;-79
2022/02/07 10:16:34;;;;;;;23.55;15.90;;;;;;;8.37;88.01;99728.13;4967725;28;20118;-76
2022/02/07 10:19:18;;;;;;;23.10;15.15;;;;;;;8.67;87.99;99760.88;4968148;28;20038;-77
2022/02/07 10:47:08;;;;;;;21.50;14.15;;;;;;;10.20;83.46;99707.00;4970863;28;20035;-75
2022/02/07 10:49:35;;;;;;;19.02;13.80;;;;;;;10.16;85.17;99700.00;4972299;28;20038;-80
2022/02/07 10:52:01;;;;;;;20.20;13.38;;;;;;;10.17;85.20;99703.47;4972200;28;20375;-79
2022/02/07 10:54:27;;;;;;;15.52;11.73;;;;;;;10.20;83.60;99700.94;4972084;28;20038;-77
2022/02/07 10:56:53;;;;;;;19.20;12.93;;;;;;;10.08;85.20;99677.41;4972040;28;20086;-79
2022/02/07 10:59:21;;;;;;;17.08;12.15;;;;;;;9.85;84.24;99639.88;4971989;28;20438;-75
2022/02/07 11:04:24;;;;;;;34.05;23.83;;;;;;;10.28;84.75;99657.28;4964898;28;20035;-75
2022/02/07 11:06:56;;;;;;;16.77;11.82;;;;;;;10.28;83.12;99645.28;4972068;28;20039;-75
2022/02/07 11:09:28;;;;;;;22.13;11.82;;;;;;;10.39;83.36;99644.69;4975177;28;20055;-76
2022/02/07 11:14:38;;;;;;;16.90;12.02;;;;;;;10.46;83.51;99631.97;4975857;28;20070;-76
2022/02/07 11:19:54;;;;;;;18.20;13.52;;;;;;;10.45;83.95;99609.56;4975570;28;20097;-75
2022/02/07 11:27:55;;;;;;;;;;;;;;;10.63;84.02;99618.56;4975997;28;20397;-75
2022/02/07 11:30:41;;;;;;;18.88;12.68;;;;;;;10.60;83.93;99613.34;4975474;28;20362;-80
2022/02/07 11:33:32;;;;;;;19.90;12.68;;;;;;;10.70;83.43;99604.13;4959023;28;20041;-77
2022/02/07 11:35:58;;;;;;;20.80;13.85;;;;;;;10.71;84.39;99606.72;4962571;28;20037;-77
2022/02/07 11:38:24;;;;;;;22.95;15.25;;;;;;;10.63;84.06;99575.59;4971743;28;20039;-81
2022/02/07 11:40:55;;;;;;;19.42;12.73;;;;;;;10.95;83.06;99595.19;4974689;28;20034;-73
2022/02/07 11:43:24;;;;;;;20.00;11.35;;;;;;;11.05;80.93;99598.84;4968051;28;20114;-80
2022/02/07 11:45:59;;;;;;;19.23;12.85;;;;;;;11.12;81.00;99591.25;4958852;29;20065;-78
2022/02/07 11:48:33;;;;;;;19.90;13.68;;;;;;;11.16;81.08;99595.66;4955793;29;20031;-77
2022/02/07 11:51:02;;;;;;;26.80;17.52;;;;;;;11.20;80.91;99586.22;4957506;28;20431;-93
2022/02/07 11:53:34;;;;;;;18.75;11.52;;;;;;;11.15;80.69;99560.31;4959192;28;20039;-88
2022/02/07 11:56:07;;;;;;;16.05;11.13;;;;;;;11.46;80.10;99573.84;4962454;28;20035;-90
2022/02/07 12:01:53;;;;;;;17.70;11.40;;;;;;;11.27;79.59;99538.16;4956544;28;20027;-84
2022/02/07 12:04:31;;;;;;;19.55;11.02;;;;;;;11.31;80.11;99548.56;4954720;28;20162;-88
2022/02/07 12:07:07;;;;;;;17.83;10.95;;;;;;;11.41;81.60;99553.91;4953244;28;20027;-86
2022/02/07 12:09:35;;;;;;;15.50;11.18;;;;;;;11.22;81.98;99524.28;4954600;28;21840;-90
2022/02/07 12:12:00;;;;;;;22.13;11.38;;;;;;;11.23;81.57;99532.03;4954756;28;20023;-86
2022/02/07 12:14:37;;;;;;;19.20;11.82;;;;;;;11.33;81.35;99543.44;4954644;28;20465;-87
2022/02/07 12:17:04;;;;;;;18.95;12.60;;;;;;;11.22;80.65;99498.44;4952882;29;20047;-88
2022/02/07 12:22:55;;;;;;;73.07;49.70;;;;;;;11.58;79.95;99494.78;5068988;23;20128;-88
2022/02/07 12:25:47;;;;;;;32.10;25.50;;;;;;;11.70;78.63;99505.31;4977010;28;20481;-84
2022/02/07 12:28:18;;;;;;;23.33;16.55;;;;;;;11.75;78.83;99487.28;4976857;28;20129;-90
2022/02/07 12:33:11;;;;;;;16.15;9.35;;;;;;;11.83;77.53;99490.88;4994223;28;20058;-87
2022/02/07 12:35:36;;;;;;;15.02;9.55;;;;;;;11.85;77.40;99488.28;4977364;28;20393;-88
2022/02/07 12:38:08;;;;;;;13.30;10.05;;;;;;;11.78;79.22;99488.19;4970666;28;20041;-85
2022/02/07 12:40:33;;;;;;;13.02;9.20;;;;;;;11.85;79.18;99493.47;4994175;28;20050;-85
2022/02/07 12:43:04;;;;;;;18.40;11.27;;;;;;;11.88;79.97;99476.28;4994041;28;20042;-82
2022/02/07 12:45:30;;;;;;;19.58;11.20;;;;;;;11.73;80.15;99470.88;4993604;28;20123;-84
2022/02/07 12:48:04;;;;;;;18.13;11.70;;;;;;;11.68;80.69;99464.78;4993807;28;20084;-84
2022/02/07 12:50:30;;;;;;;18.70;11.43;;;;;;;11.77;80.50;99470.94;4993826;28;20034;-80
2022/02/07 12:52:56;;;;;;;16.35;10.82;;;;;;;11.88;80.07;99475.44;4993659;28;20084;-84
2022/02/07 12:55:22;;;;;;;16.63;10.93;;;;;;;11.93;80.14;99466.88;4993622;28;20092;-87
2022/02/07 12:57:48;;;;;;;20.52;11.05;;;;;;;11.93;78.89;99459.13;4993609;28;20030;-83
2022/02/07 13:00:16;;;;;;;20.25;12.43;;;;;;;11.89;79.60;99464.25;4975736;28;20532;-84
2022/02/07 13:02:44;;;;;;;16.83;11.00;;;;;;;11.89;79.04;99464.25;4993522;28;20030;-82
2022/02/07 13:05:11;;;;;;;44.03;28.73;;;;;;;11.82;79.41;99458.09;4993561;28;20305;-82
2022/02/07 13:07:43;;;;;;;29.13;12.48;;;;;;;11.93;78.36;99468.59;4993327;28;20030;-81
2022/02/07 13:10:12;;;;;;;16.45;11.68;;;;;;;11.95;77.63;99460.03;4993231;28;20054;-81
2022/02/07 13:13:05;;;;;;;21.73;12.35;;;;;;;11.87;79.03;99463.34;4993160;28;20054;-75
2022/02/07 13:15:35;;;;;;;22.02;10.68;;;;;;;11.69;79.76;99414.78;4975804;28;20123;-81
2022/02/07 13:18:07;;;;;;;19.35;10.15;;;;;;;11.48;78.81;99387.78;4993022;28;20022;-81
2022/02/07 13:20:33;;;;;;;22.17;11.13;;;;;;;11.75;78.35;99439.03;4992950;28;20034;-80
2022/02/07 13:23:12;;;;;;;40.53;22.58;;;;;;;11.79;79.65;99442.53;4992995;28;20456;-81
2022/02/07 13:25:44;;;;;;;35.67;17.05;;;;;;;11.75;80.02;99439.03;4993347;28;20096;-78
2022/02/07 13:28:21;;;;;;;17.55;10.38;;;;;;;11.84;79.00;99450.34;4992929;28;20034;-78
2022/02/07 13:30:50;;;;;;;16.08;9.57;;;;;;;11.88;79.05;99453.00;4992113;28;20038;-77
2022/02/07 13:33:16;;;;;;;15.05;9.40;;;;;;;11.73;78.83;99438.13;4992863;28;20036;-80
2022/02/07 13:35:45;;;;;;;16.65;9.85;;;;;;;11.69;78.73;99435.47;4992876;28;20119;-80
2022/02/07 13:38:13;;;;;;;13.35;8.55;;;;;;;11.59;78.70;99448.25;4992975;28;20022;-81
2022/02/07 13:40:42;;;;;;;16.27;8.43;;;;;;;11.60;78.71;99450.00;4975306;28;20038;-82
2022/02/07 13:43:20;;;;;;;21.65;10.63;;;;;;;11.33;79.18;99403.91;4975330;28;20030;-86
2022/02/07 13:45:58;;;;;;;14.50;8.38;;;;;;;11.43;78.79;99436.78;4992444;28;20068;-77
2022/02/07 13:48:28;;;;;;;17.50;9.85;;;;;;;10.97;78.43;99346.47;4992690;28;20038;-79
2022/02/07 13:50:57;;;;;;;28.35;9.48;;;;;;;11.39;79.46;99429.84;4992633;28;20033;-77
2022/02/07 13:53:26;;;;;;;30.23;15.23;;;;;;;11.23;78.65;99413.19;4992496;28;20103;-87
2022/02/07 13:55:54;;;;;;;13.43;9.25;;;;;;;11.18;78.46;99407.09;4992286;28;20496;-81
2022/02/07 13:58:34;;;;;;;43.05;24.63;;;;;;;11.32;78.41;99408.19;4989693;28;20027;-80
2022/02/07 14:01:03;;;;;;;39.33;26.05;;;;;;;11.46;78.42;99404.97;4987328;28;20507;-84
2022/02/07 14:03:38;;;;;;;21.35;12.43;;;;;;;11.48;78.74;99408.44;4989395;28;20049;-86
2022/02/07 14:06:19;;;;;;;31.40;19.83;;;;;;;11.48;79.28;99409.31;4992033;28;20041;-92
2022/02/07 14:08:53;;;;;;;49.70;25.42;;;;;;;11.41;78.61;99404.88;4991726;28;20033;-78
2022/02/07 14:11:25;;;;;;;20.50;11.75;;;;;;;11.30;78.67;99402.13;4991484;28;20138;-84
2022/02/07 14:13:53;;;;;;;14.32;8.82;;;;;;;11.10;78.37;99388.88;4993881;28;20086;-83
2022/02/07 14:16:21;;;;;;;13.32;9.40;;;;;;;10.90;79.06;99354.06;4978478;28;20022;-86
2022/02/07 14:18:47;;;;;;;13.95;9.30;;;;;;;11.03;78.55;99376.69;4998879;28;20032;-85
2022/02/07 14:21:15;;;;;;;16.25;9.52;;;;;;;11.06;78.71;99396.53;4973992;28;20058;-85